sensor_id;sensor_type;location;lat;lon;timestamp;P1;durP1;ratioP1;P2;durP2;ratioP2
15490;SDS011;7847;50.930;4.336;2022-08-21T00:01:16;0.20;;;0.20;;
15490;SDS011;7847;50.930;4.336;2022-08-21T00:03:42;0.20;;;0.20;;
15490;SDS011;7847;50.930;4.336;2022-08-21T00:06:08;0.20;;;0.20;;
15490;SDS011;7847;50.930;4.336;2022-08-21T00:08:34;0.10;;;0.10;;
15490;SDS011;7847;50.930;4.336;2022-08-21T00:11:00;0.10;;;0.10;;
15490;SDS011;7847;50.930;4.336;2022-08-21T00:13:26;0.20;;;0.20;;
15490;SDS011;7847;50.930;4.336;2022-08-21T00:15:53;0.20;;;0.20;;
15490;SDS011;7847;50.930;4.336;2022-08-21T00:18:19;0.20;;;0.20;;
15490;SDS011;7847;50.930;4.336;2022-08-21T00:20:45;0.10;;;0.10;;
15490;SDS011;7847;50.930;4.336;2022-08-21T00:23:12;0.20;;;0.20;;
15490;SDS011;7847;50.930;4.336;2022-08-21T00:25:39;0.20;;;0.20;;
15490;SDS011;7847;50.930;4.336;2022-08-21T00:28:06;0.20;;;0.20;;
15490;SDS011;7847;50.930;4.336;2022-08-21T00:30:33;0.15;;;0.15;;
15490;SDS011;7847;50.930;4.336;2022-08-21T00:32:59;0.10;;;0.10;;
15490;SDS011;7847;50.930;4.336;2022-08-21T00:35:27;0.20;;;0.20;;
15490;SDS011;7847;50.930;4.336;2022-08-21T00:37:53;0.20;;;0.20;;
15490;SDS011;7847;50.930;4.336;2022-08-21T00:40:21;0.10;;;0.10;;
15490;SDS011;7847;50.930;4.336;2022-08-21T00:42:47;0.20;;;0.20;;
15490;SDS011;7847;50.930;4.336;2022-08-21T00:45:15;0.10;;;0.10;;
15490;SDS011;7847;50.930;4.336;2022-08-21T00:47:41;0.10;;;0.10;;
15490;SDS011;7847;50.930;4.336;2022-08-21T00:50:08;0.13;;;0.13;;
15490;SDS011;7847;50.930;4.336;2022-08-21T00:52:36;0.20;;;0.20;;
15490;SDS011;7847;50.930;4.336;2022-08-21T00:55:03;0.20;;;0.20;;
15490;SDS011;7847;50.930;4.336;2022-08-21T00:57:34;0.20;;;0.20;;
15490;SDS011;7847;50.930;4.336;2022-08-21T01:00:06;0.20;;;0.20;;
15490;SDS011;7847;50.930;4.336;2022-08-21T01:02:33;0.20;;;0.20;;
15490;SDS011;7847;50.930;4.336;2022-08-21T01:04:59;0.10;;;0.10;;
15490;SDS011;7847;50.930;4.336;2022-08-21T01:07:25;0.20;;;0.20;;
15490;SDS011;7847;50.930;4.336;2022-08-21T01:09:51;0.20;;;0.20;;
15490;SDS011;7847;50.930;4.336;2022-08-21T01:12:17;0.20;;;0.20;;
15490;SDS011;7847;50.930;4.336;2022-08-21T01:14:43;0.20;;;0.20;;
15490;SDS011;7847;50.930;4.336;2022-08-21T01:17:11;0.20;;;0.20;;
15490;SDS011;7847;50.930;4.336;2022-08-21T01:19:38;0.20;;;0.20;;
15490;SDS011;7847;50.930;4.336;2022-08-21T01:22:05;0.17;;;0.17;;
15490;SDS011;7847;50.930;4.336;2022-08-21T01:24:31;0.20;;;0.20;;
15490;SDS011;7847;50.930;4.336;2022-08-21T01:26:57;0.10;;;0.10;;
15490;SDS011;7847;50.930;4.336;2022-08-21T01:32:08;0.20;;;0.20;;
15490;SDS011;7847;50.930;4.336;2022-08-21T01:34:36;0.20;;;0.20;;
15490;SDS011;7847;50.930;4.336;2022-08-21T01:37:02;0.20;;;0.20;;
15490;SDS011;7847;50.930;4.336;2022-08-21T01:39:29;0.20;;;0.20;;
15490;SDS011;7847;50.930;4.336;2022-08-21T01:41:55;0.20;;;0.20;;
15490;SDS011;7847;50.930;4.336;2022-08-21T01:44:22;0.20;;;0.20;;
15490;SDS011;7847;50.930;4.336;2022-08-21T01:46:49;0.20;;;0.20;;
15490;SDS011;7847;50.930;4.336;2022-08-21T01:49:15;0.20;;;0.20;;
15490;SDS011;7847;50.930;4.336;2022-08-21T01:51:42;0.20;;;0.20;;
15490;SDS011;7847;50.930;4.336;2022-08-21T01:54:08;0.20;;;0.20;;
15490;SDS011;7847;50.930;4.336;2022-08-21T01:56:35;0.20;;;0.20;;
15490;SDS011;7847;50.930;4.336;2022-08-21T01:59:02;0.20;;;0.20;;
15490;SDS011;7847;50.930;4.336;2022-08-21T02:01:28;0.20;;;0.20;;
15490;SDS011;7847;50.930;4.336;2022-08-21T02:03:54;0.20;;;0.20;;
15490;SDS011;7847;50.930;4.336;2022-08-21T02:06:20;0.22;;;0.22;;
15490;SDS011;7847;50.930;4.336;2022-08-21T02:08:46;0.20;;;0.20;;
15490;SDS011;7847;50.930;4.336;2022-08-21T02:11:12;0.20;;;0.20;;
15490;SDS011;7847;50.930;4.336;2022-08-21T02:13:39;0.20;;;0.20;;
15490;SDS011;7847;50.930;4.336;2022-08-21T02:16:05;0.20;;;0.20;;
15490;SDS011;7847;50.930;4.336;2022-08-21T02:18:32;0.20;;;0.20;;
15490;SDS011;7847;50.930;4.336;2022-08-21T02:20:58;0.20;;;0.20;;
15490;SDS011;7847;50.930;4.336;2022-08-21T02:23:24;0.20;;;0.20;;
15490;SDS011;7847;50.930;4.336;2022-08-21T02:25:50;0.20;;;0.20;;
15490;SDS011;7847;50.930;4.336;2022-08-21T02:28:17;0.20;;;0.20;;
15490;SDS011;7847;50.930;4.336;2022-08-21T02:30:45;0.20;;;0.20;;
15490;SDS011;7847;50.930;4.336;2022-08-21T02:33:11;0.10;;;0.10;;
15490;SDS011;7847;50.930;4.336;2022-08-21T02:35:38;0.20;;;0.20;;
15490;SDS011;7847;50.930;4.336;2022-08-21T02:38:08;0.20;;;0.20;;
15490;SDS011;7847;50.930;4.336;2022-08-21T02:40:36;0.20;;;0.20;;
15490;SDS011;7847;50.930;4.336;2022-08-21T02:43:03;0.25;;;0.25;;
15490;SDS011;7847;50.930;4.336;2022-08-21T02:45:29;0.20;;;0.20;;
15490;SDS011;7847;50.930;4.336;2022-08-21T02:48:00;0.20;;;0.20;;
15490;SDS011;7847;50.930;4.336;2022-08-21T02:50:28;0.20;;;0.20;;
15490;SDS011;7847;50.930;4.336;2022-08-21T02:52:54;0.20;;;0.20;;
15490;SDS011;7847;50.930;4.336;2022-08-21T02:55:24;0.20;;;0.20;;
15490;SDS011;7847;50.930;4.336;2022-08-21T02:57:51;0.20;;;0.20;;
15490;SDS011;7847;50.930;4.336;2022-08-21T03:00:18;0.10;;;0.10;;
15490;SDS011;7847;50.930;4.336;2022-08-21T03:02:45;0.20;;;0.20;;
15490;SDS011;7847;50.930;4.336;2022-08-21T03:05:13;0.20;;;0.20;;
15490;SDS011;7847;50.930;4.336;2022-08-21T03:07:40;0.20;;;0.20;;
15490;SDS011;7847;50.930;4.336;2022-08-21T03:10:06;0.20;;;0.20;;
15490;SDS011;7847;50.930;4.336;2022-08-21T03:12:33;0.20;;;0.20;;
15490;SDS011;7847;50.930;4.336;2022-08-21T03:15:00;0.20;;;0.20;;
15490;SDS011;7847;50.930;4.336;2022-08-21T03:17:26;0.20;;;0.20;;
15490;SDS011;7847;50.930;4.336;2022-08-21T03:19:52;0.20;;;0.20;;
15490;SDS011;7847;50.930;4.336;2022-08-21T03:22:18;0.20;;;0.20;;
15490;SDS011;7847;50.930;4.336;2022-08-21T03:24:45;0.20;;;0.20;;
15490;SDS011;7847;50.930;4.336;2022-08-21T03:27:11;0.20;;;0.20;;
15490;SDS011;7847;50.930;4.336;2022-08-21T03:29:40;0.20;;;0.20;;
15490;SDS011;7847;50.930;4.336;2022-08-21T03:32:06;0.20;;;0.20;;
15490;SDS011;7847;50.930;4.336;2022-08-21T03:34:34;0.20;;;0.20;;
15490;SDS011;7847;50.930;4.336;2022-08-21T03:37:01;0.20;;;0.20;;
15490;SDS011;7847;50.930;4.336;2022-08-21T03:39:27;0.20;;;0.20;;
15490;SDS011;7847;50.930;4.336;2022-08-21T03:41:53;0.20;;;0.20;;
15490;SDS011;7847;50.930;4.336;2022-08-21T03:44:19;0.20;;;0.20;;
15490;SDS011;7847;50.930;4.336;2022-08-21T03:46:45;0.20;;;0.20;;
15490;SDS011;7847;50.930;4.336;2022-08-21T03:49:11;0.20;;;0.20;;
15490;SDS011;7847;50.930;4.336;2022-08-21T03:51:38;0.20;;;0.20;;
15490;SDS011;7847;50.930;4.336;2022-08-21T03:54:04;0.20;;;0.20;;
15490;SDS011;7847;50.930;4.336;2022-08-21T03:56:30;0.20;;;0.20;;
15490;SDS011;7847;50.930;4.336;2022-08-21T03:58:56;0.20;;;0.20;;
15490;SDS011;7847;50.930;4.336;2022-08-21T04:01:22;0.20;;;0.20;;
15490;SDS011;7847;50.930;4.336;2022-08-21T04:03:48;0.20;;;0.20;;
15490;SDS011;7847;50.930;4.336;2022-08-21T04:06:14;0.20;;;0.20;;
15490;SDS011;7847;50.930;4.336;2022-08-21T04:08:40;0.20;;;0.20;;
15490;SDS011;7847;50.930;4.336;2022-08-21T04:11:08;0.20;;;0.20;;
15490;SDS011;7847;50.930;4.336;2022-08-21T04:13:35;0.20;;;0.20;;
15490;SDS011;7847;50.930;4.336;2022-08-21T04:16:01;0.20;;;0.20;;
15490;SDS011;7847;50.930;4.336;2022-08-21T04:18:27;0.20;;;0.20;;
15490;SDS011;7847;50.930;4.336;2022-08-21T04:20:53;0.20;;;0.20;;
15490;SDS011;7847;50.930;4.336;2022-08-21T04:23:20;0.20;;;0.20;;
15490;SDS011;7847;50.930;4.336;2022-08-21T04:25:47;0.20;;;0.20;;
15490;SDS011;7847;50.930;4.336;2022-08-21T04:28:13;0.20;;;0.20;;
15490;SDS011;7847;50.930;4.336;2022-08-21T04:30:39;0.20;;;0.20;;
15490;SDS011;7847;50.930;4.336;2022-08-21T04:33:05;0.20;;;0.20;;
15490;SDS011;7847;50.930;4.336;2022-08-21T04:35:31;0.20;;;0.20;;
15490;SDS011;7847;50.930;4.336;2022-08-21T04:37:57;0.20;;;0.20;;
15490;SDS011;7847;50.930;4.336;2022-08-21T04:40:24;0.20;;;0.20;;
15490;SDS011;7847;50.930;4.336;2022-08-21T04:42:52;0.20;;;0.20;;
15490;SDS011;7847;50.930;4.336;2022-08-21T04:45:23;0.20;;;0.20;;
15490;SDS011;7847;50.930;4.336;2022-08-21T04:47:50;0.20;;;0.20;;
15490;SDS011;7847;50.930;4.336;2022-08-21T04:50:16;0.20;;;0.20;;
15490;SDS011;7847;50.930;4.336;2022-08-21T04:52:42;0.20;;;0.20;;
15490;SDS011;7847;50.930;4.336;2022-08-21T04:55:09;0.20;;;0.20;;
15490;SDS011;7847;50.930;4.336;2022-08-21T04:57:35;0.20;;;0.20;;
15490;SDS011;7847;50.930;4.336;2022-08-21T05:00:02;0.20;;;0.20;;
15490;SDS011;7847;50.930;4.336;2022-08-21T05:02:29;0.20;;;0.20;;
15490;SDS011;7847;50.930;4.336;2022-08-21T05:04:58;0.20;;;0.20;;
15490;SDS011;7847;50.930;4.336;2022-08-21T05:07:26;0.20;;;0.20;;
15490;SDS011;7847;50.930;4.336;2022-08-21T05:09:53;0.20;;;0.20;;
15490;SDS011;7847;50.930;4.336;2022-08-21T05:12:19;0.20;;;0.20;;
15490;SDS011;7847;50.930;4.336;2022-08-21T05:14:45;0.20;;;0.20;;
15490;SDS011;7847;50.930;4.336;2022-08-21T05:17:12;0.20;;;0.20;;
15490;SDS011;7847;50.930;4.336;2022-08-21T05:19:38;0.20;;;0.20;;
15490;SDS011;7847;50.930;4.336;2022-08-21T05:22:04;0.30;;;0.30;;
15490;SDS011;7847;50.930;4.336;2022-08-21T05:24:31;0.20;;;0.20;;
15490;SDS011;7847;50.930;4.336;2022-08-21T05:26:57;0.20;;;0.20;;
15490;SDS011;7847;50.930;4.336;2022-08-21T05:29:23;0.20;;;0.20;;
15490;SDS011;7847;50.930;4.336;2022-08-21T05:31:50;0.20;;;0.20;;
15490;SDS011;7847;50.930;4.336;2022-08-21T05:34:20;0.20;;;0.20;;
15490;SDS011;7847;50.930;4.336;2022-08-21T05:36:46;0.20;;;0.20;;
15490;SDS011;7847;50.930;4.336;2022-08-21T05:39:12;0.20;;;0.20;;
15490;SDS011;7847;50.930;4.336;2022-08-21T05:41:38;0.20;;;0.20;;
15490;SDS011;7847;50.930;4.336;2022-08-21T05:44:04;0.20;;;0.20;;
15490;SDS011;7847;50.930;4.336;2022-08-21T05:46:31;0.20;;;0.20;;
15490;SDS011;7847;50.930;4.336;2022-08-21T05:48:57;0.20;;;0.20;;
15490;SDS011;7847;50.930;4.336;2022-08-21T05:51:23;0.20;;;0.20;;
15490;SDS011;7847;50.930;4.336;2022-08-21T05:53:49;0.10;;;0.10;;
15490;SDS011;7847;50.930;4.336;2022-08-21T05:56:15;0.20;;;0.20;;
15490;SDS011;7847;50.930;4.336;2022-08-21T05:58:41;0.20;;;0.20;;
15490;SDS011;7847;50.930;4.336;2022-08-21T06:01:08;0.20;;;0.20;;
15490;SDS011;7847;50.930;4.336;2022-08-21T06:03:35;0.20;;;0.20;;
15490;SDS011;7847;50.930;4.336;2022-08-21T06:06:02;0.20;;;0.20;;
15490;SDS011;7847;50.930;4.336;2022-08-21T06:08:28;0.20;;;0.20;;
15490;SDS011;7847;50.930;4.336;2022-08-21T06:10:55;0.20;;;0.20;;
15490;SDS011;7847;50.930;4.336;2022-08-21T06:13:22;0.20;;;0.20;;
15490;SDS011;7847;50.930;4.336;2022-08-21T06:15:48;0.20;;;0.20;;
15490;SDS011;7847;50.930;4.336;2022-08-21T06:18:15;0.20;;;0.20;;
15490;SDS011;7847;50.930;4.336;2022-08-21T06:20:41;0.20;;;0.20;;
15490;SDS011;7847;50.930;4.336;2022-08-21T06:23:07;0.20;;;0.20;;
15490;SDS011;7847;50.930;4.336;2022-08-21T06:25:33;0.20;;;0.20;;
15490;SDS011;7847;50.930;4.336;2022-08-21T06:28:03;0.20;;;0.20;;
15490;SDS011;7847;50.930;4.336;2022-08-21T06:30:30;0.20;;;0.20;;
15490;SDS011;7847;50.930;4.336;2022-08-21T06:32:56;0.20;;;0.20;;
15490;SDS011;7847;50.930;4.336;2022-08-21T06:35:22;0.20;;;0.20;;
15490;SDS011;7847;50.930;4.336;2022-08-21T06:37:53;0.20;;;0.20;;
15490;SDS011;7847;50.930;4.336;2022-08-21T06:40:20;0.20;;;0.20;;
15490;SDS011;7847;50.930;4.336;2022-08-21T06:42:46;0.20;;;0.20;;
15490;SDS011;7847;50.930;4.336;2022-08-21T06:45:12;0.20;;;0.20;;
15490;SDS011;7847;50.930;4.336;2022-08-21T06:47:38;0.20;;;0.20;;
15490;SDS011;7847;50.930;4.336;2022-08-21T06:50:05;0.20;;;0.20;;
15490;SDS011;7847;50.930;4.336;2022-08-21T06:52:35;0.10;;;0.10;;
15490;SDS011;7847;50.930;4.336;2022-08-21T06:55:01;0.10;;;0.10;;
15490;SDS011;7847;50.930;4.336;2022-08-21T06:57:27;0.10;;;0.10;;
15490;SDS011;7847;50.930;4.336;2022-08-21T06:59:53;0.10;;;0.10;;
15490;SDS011;7847;50.930;4.336;2022-08-21T07:02:19;0.10;;;0.10;;
15490;SDS011;7847;50.930;4.336;2022-08-21T07:04:45;0.10;;;0.10;;
15490;SDS011;7847;50.930;4.336;2022-08-21T07:07:11;0.10;;;0.10;;
15490;SDS011;7847;50.930;4.336;2022-08-21T07:09:37;0.20;;;0.20;;
15490;SDS011;7847;50.930;4.336;2022-08-21T07:12:04;0.20;;;0.20;;
15490;SDS011;7847;50.930;4.336;2022-08-21T07:14:30;0.10;;;0.10;;
15490;SDS011;7847;50.930;4.336;2022-08-21T07:16:56;0.20;;;0.20;;
15490;SDS011;7847;50.930;4.336;2022-08-21T07:19:23;0.10;;;0.10;;
15490;SDS011;7847;50.930;4.336;2022-08-21T07:21:49;0.20;;;0.20;;
15490;SDS011;7847;50.930;4.336;2022-08-21T07:24:15;0.10;;;0.10;;
15490;SDS011;7847;50.930;4.336;2022-08-21T07:26:41;0.10;;;0.10;;
15490;SDS011;7847;50.930;4.336;2022-08-21T07:29:07;0.10;;;0.10;;
15490;SDS011;7847;50.930;4.336;2022-08-21T07:31:33;0.20;;;0.20;;
15490;SDS011;7847;50.930;4.336;2022-08-21T07:33:59;0.20;;;0.20;;
15490;SDS011;7847;50.930;4.336;2022-08-21T07:36:25;0.10;;;0.10;;
15490;SDS011;7847;50.930;4.336;2022-08-21T07:38:51;0.20;;;0.20;;
15490;SDS011;7847;50.930;4.336;2022-08-21T07:41:19;0.08;;;0.08;;
15490;SDS011;7847;50.930;4.336;2022-08-21T07:43:45;0.10;;;0.10;;
15490;SDS011;7847;50.930;4.336;2022-08-21T07:46:12;0.10;;;0.10;;
15490;SDS011;7847;50.930;4.336;2022-08-21T07:48:38;0.10;;;0.10;;
15490;SDS011;7847;50.930;4.336;2022-08-21T07:51:13;0.10;;;0.10;;
15490;SDS011;7847;50.930;4.336;2022-08-21T07:53:39;0.10;;;0.10;;
15490;SDS011;7847;50.930;4.336;2022-08-21T07:56:06;0.10;;;0.10;;
15490;SDS011;7847;50.930;4.336;2022-08-21T07:58:33;0.00;;;0.00;;
15490;SDS011;7847;50.930;4.336;2022-08-21T08:00:59;0.10;;;0.10;;
15490;SDS011;7847;50.930;4.336;2022-08-21T08:03:26;0.10;;;0.10;;
15490;SDS011;7847;50.930;4.336;2022-08-21T08:05:52;0.10;;;0.10;;
15490;SDS011;7847;50.930;4.336;2022-08-21T08:08:18;0.10;;;0.10;;
15490;SDS011;7847;50.930;4.336;2022-08-21T08:10:44;0.10;;;0.10;;
15490;SDS011;7847;50.930;4.336;2022-08-21T08:13:11;0.10;;;0.10;;
15490;SDS011;7847;50.930;4.336;2022-08-21T08:15:37;0.10;;;0.10;;
15490;SDS011;7847;50.930;4.336;2022-08-21T08:18:03;0.10;;;0.10;;
15490;SDS011;7847;50.930;4.336;2022-08-21T08:20:29;0.10;;;0.10;;
15490;SDS011;7847;50.930;4.336;2022-08-21T08:22:55;0.10;;;0.10;;
15490;SDS011;7847;50.930;4.336;2022-08-21T08:25:22;0.10;;;0.10;;
15490;SDS011;7847;50.930;4.336;2022-08-21T08:27:48;0.10;;;0.10;;
15490;SDS011;7847;50.930;4.336;2022-08-21T08:30:15;0.10;;;0.10;;
15490;SDS011;7847;50.930;4.336;2022-08-21T08:32:42;0.10;;;0.10;;
15490;SDS011;7847;50.930;4.336;2022-08-21T08:35:09;0.10;;;0.10;;
15490;SDS011;7847;50.930;4.336;2022-08-21T08:37:37;0.10;;;0.10;;
15490;SDS011;7847;50.930;4.336;2022-08-21T08:40:05;0.00;;;0.00;;
15490;SDS011;7847;50.930;4.336;2022-08-21T08:42:32;0.10;;;0.10;;
15490;SDS011;7847;50.930;4.336;2022-08-21T08:45:09;0.10;;;0.10;;
15490;SDS011;7847;50.930;4.336;2022-08-21T08:47:40;0.10;;;0.10;;
15490;SDS011;7847;50.930;4.336;2022-08-21T08:50:17;0.10;;;0.10;;
15490;SDS011;7847;50.930;4.336;2022-08-21T08:52:52;0.10;;;0.10;;
15490;SDS011;7847;50.930;4.336;2022-08-21T08:55:32;0.10;;;0.10;;
15490;SDS011;7847;50.930;4.336;2022-08-21T08:57:59;0.10;;;0.10;;
15490;SDS011;7847;50.930;4.336;2022-08-21T09:00:25;0.10;;;0.10;;
15490;SDS011;7847;50.930;4.336;2022-08-21T09:02:52;0.00;;;0.00;;
15490;SDS011;7847;50.930;4.336;2022-08-21T09:05:24;0.10;;;0.10;;
15490;SDS011;7847;50.930;4.336;2022-08-21T09:24:00;0.10;;;0.10;;
15490;SDS011;7847;50.930;4.336;2022-08-21T09:26:29;0.10;;;0.10;;
15490;SDS011;7847;50.930;4.336;2022-08-21T09:28:58;0.00;;;0.00;;
15490;SDS011;7847;50.930;4.336;2022-08-21T09:31:33;0.00;;;0.00;;
15490;SDS011;7847;50.930;4.336;2022-08-21T09:34:00;0.00;;;0.00;;
15490;SDS011;7847;50.930;4.336;2022-08-21T09:39:29;0.00;;;0.00;;
15490;SDS011;7847;50.930;4.336;2022-08-21T09:42:00;0.03;;;0.03;;
15490;SDS011;7847;50.930;4.336;2022-08-21T09:44:28;0.00;;;0.00;;
15490;SDS011;7847;50.930;4.336;2022-08-21T09:46:54;0.00;;;0.00;;
15490;SDS011;7847;50.930;4.336;2022-08-21T09:49:54;0.10;;;0.10;;
15490;SDS011;7847;50.930;4.336;2022-08-21T09:52:18;0.00;;;0.00;;
15490;SDS011;7847;50.930;4.336;2022-08-21T09:54:48;0.10;;;0.10;;
15490;SDS011;7847;50.930;4.336;2022-08-21T09:57:20;0.00;;;0.00;;
15490;SDS011;7847;50.930;4.336;2022-08-21T10:00:10;0.10;;;0.10;;
15490;SDS011;7847;50.930;4.336;2022-08-21T10:02:41;0.00;;;0.00;;
15490;SDS011;7847;50.930;4.336;2022-08-21T10:05:09;0.00;;;0.00;;
15490;SDS011;7847;50.930;4.336;2022-08-21T10:07:41;0.10;;;0.10;;
15490;SDS011;7847;50.930;4.336;2022-08-21T10:10:08;0.10;;;0.10;;
15490;SDS011;7847;50.930;4.336;2022-08-21T10:17:29;0.00;;;0.00;;
15490;SDS011;7847;50.930;4.336;2022-08-21T10:20:03;0.00;;;0.00;;
15490;SDS011;7847;50.930;4.336;2022-08-21T10:27:41;0.00;;;0.00;;
15490;SDS011;7847;50.930;4.336;2022-08-21T10:30:12;0.10;;;0.10;;
15490;SDS011;7847;50.930;4.336;2022-08-21T10:45:36;0.00;;;0.00;;
15490;SDS011;7847;50.930;4.336;2022-08-21T10:48:05;0.00;;;0.00;;
15490;SDS011;7847;50.930;4.336;2022-08-21T10:50:45;0.00;;;0.00;;
15490;SDS011;7847;50.930;4.336;2022-08-21T10:53:29;0.10;;;0.10;;
15490;SDS011;7847;50.930;4.336;2022-08-21T10:58:28;0.00;;;0.00;;
15490;SDS011;7847;50.930;4.336;2022-08-21T11:01:00;0.00;;;0.00;;
15490;SDS011;7847;50.930;4.336;2022-08-21T11:03:34;0.00;;;0.00;;
15490;SDS011;7847;50.930;4.336;2022-08-21T11:06:45;0.00;;;0.00;;
15490;SDS011;7847;50.930;4.336;2022-08-21T11:08:55;0.00;;;0.00;;
15490;SDS011;7847;50.930;4.336;2022-08-21T11:11:29;0.00;;;0.00;;
15490;SDS011;7847;50.930;4.336;2022-08-21T11:14:01;0.00;;;0.00;;
15490;SDS011;7847;50.930;4.336;2022-08-21T11:16:41;0.00;;;0.00;;
15490;SDS011;7847;50.930;4.336;2022-08-21T11:19:13;0.08;;;0.08;;
15490;SDS011;7847;50.930;4.336;2022-08-21T11:21:47;0.00;;;0.00;;
15490;SDS011;7847;50.930;4.336;2022-08-21T11:29:37;0.00;;;0.00;;
15490;SDS011;7847;50.930;4.336;2022-08-21T11:37:26;0.00;;;0.00;;
15490;SDS011;7847;50.930;4.336;2022-08-21T11:40:02;0.00;;;0.00;;
15490;SDS011;7847;50.930;4.336;2022-08-21T11:45:08;0.00;;;0.00;;
15490;SDS011;7847;50.930;4.336;2022-08-21T11:50:43;0.00;;;0.00;;
15490;SDS011;7847;50.930;4.336;2022-08-21T11:53:21;0.00;;;0.00;;
15490;SDS011;7847;50.930;4.336;2022-08-21T11:55:56;0.00;;;0.00;;
15490;SDS011;7847;50.930;4.336;2022-08-21T11:58:58;0.00;;;0.00;;
15490;SDS011;7847;50.930;4.336;2022-08-21T12:01:24;0.00;;;0.00;;
15490;SDS011;7847;50.930;4.336;2022-08-21T12:03:58;0.03;;;0.03;;
15490;SDS011;7847;50.930;4.336;2022-08-21T12:07:08;0.00;;;0.00;;
15490;SDS011;7847;50.930;4.336;2022-08-21T12:11:59;0.00;;;0.00;;
15490;SDS011;7847;50.930;4.336;2022-08-21T12:14:35;0.00;;;0.00;;
15490;SDS011;7847;50.930;4.336;2022-08-21T12:17:05;0.00;;;0.00;;
15490;SDS011;7847;50.930;4.336;2022-08-21T12:19:31;0.00;;;0.00;;
15490;SDS011;7847;50.930;4.336;2022-08-21T12:26:53;0.00;;;0.00;;
15490;SDS011;7847;50.930;4.336;2022-08-21T12:29:29;0.00;;;0.00;;
15490;SDS011;7847;50.930;4.336;2022-08-21T12:32:03;0.00;;;0.00;;
15490;SDS011;7847;50.930;4.336;2022-08-21T12:34:35;0.00;;;0.00;;
15490;SDS011;7847;50.930;4.336;2022-08-21T12:37:03;0.00;;;0.00;;
15490;SDS011;7847;50.930;4.336;2022-08-21T12:39:31;0.00;;;0.00;;
15490;SDS011;7847;50.930;4.336;2022-08-21T12:42:06;0.00;;;0.00;;
15490;SDS011;7847;50.930;4.336;2022-08-21T12:44:38;0.00;;;0.00;;
15490;SDS011;7847;50.930;4.336;2022-08-21T12:49:52;0.00;;;0.00;;
15490;SDS011;7847;50.930;4.336;2022-08-21T12:52:28;0.00;;;0.00;;
15490;SDS011;7847;50.930;4.336;2022-08-21T12:54:55;0.00;;;0.00;;
15490;SDS011;7847;50.930;4.336;2022-08-21T12:57:26;0.05;;;0.05;;
15490;SDS011;7847;50.930;4.336;2022-08-21T12:59:56;0.03;;;0.03;;
15490;SDS011;7847;50.930;4.336;2022-08-21T13:02:29;0.00;;;0.00;;
15490;SDS011;7847;50.930;4.336;2022-08-21T13:04:56;0.00;;;0.00;;
15490;SDS011;7847;50.930;4.336;2022-08-21T13:07:29;0.00;;;0.00;;
15490;SDS011;7847;50.930;4.336;2022-08-21T13:10:00;0.00;;;0.00;;
15490;SDS011;7847;50.930;4.336;2022-08-21T13:12:27;0.00;;;0.00;;
15490;SDS011;7847;50.930;4.336;2022-08-21T13:14:56;0.00;;;0.00;;
15490;SDS011;7847;50.930;4.336;2022-08-21T13:17:22;0.00;;;0.00;;
15490;SDS011;7847;50.930;4.336;2022-08-21T13:19:53;0.00;;;0.00;;
15490;SDS011;7847;50.930;4.336;2022-08-21T13:22:20;0.00;;;0.00;;
15490;SDS011;7847;50.930;4.336;2022-08-21T13:24:47;0.00;;;0.00;;
15490;SDS011;7847;50.930;4.336;2022-08-21T13:27:26;0.00;;;0.00;;
15490;SDS011;7847;50.930;4.336;2022-08-21T13:32:28;0.00;;;0.00;;
15490;SDS011;7847;50.930;4.336;2022-08-21T13:34:57;0.00;;;0.00;;
15490;SDS011;7847;50.930;4.336;2022-08-21T13:37:24;0.00;;;0.00;;
15490;SDS011;7847;50.930;4.336;2022-08-21T13:39:53;0.00;;;0.00;;
15490;SDS011;7847;50.930;4.336;2022-08-21T13:42:20;0.10;;;0.10;;
15490;SDS011;7847;50.930;4.336;2022-08-21T13:44:48;0.00;;;0.00;;
15490;SDS011;7847;50.930;4.336;2022-08-21T13:47:18;0.00;;;0.00;;
15490;SDS011;7847;50.930;4.336;2022-08-21T13:49:48;0.00;;;0.00;;
15490;SDS011;7847;50.930;4.336;2022-08-21T13:52:16;0.00;;;0.00;;
15490;SDS011;7847;50.930;4.336;2022-08-21T13:54:42;0.00;;;0.00;;
15490;SDS011;7847;50.930;4.336;2022-08-21T13:57:19;0.00;;;0.00;;
15490;SDS011;7847;50.930;4.336;2022-08-21T13:59:45;0.00;;;0.00;;
15490;SDS011;7847;50.930;4.336;2022-08-21T14:02:15;0.00;;;0.00;;
15490;SDS011;7847;50.930;4.336;2022-08-21T14:04:53;0.00;;;0.00;;
15490;SDS011;7847;50.930;4.336;2022-08-21T14:07:24;0.00;;;0.00;;
15490;SDS011;7847;50.930;4.336;2022-08-21T14:09:51;0.00;;;0.00;;
15490;SDS011;7847;50.930;4.336;2022-08-21T14:12:31;0.00;;;0.00;;
15490;SDS011;7847;50.930;4.336;2022-08-21T14:15:01;0.00;;;0.00;;
15490;SDS011;7847;50.930;4.336;2022-08-21T14:17:36;0.00;;;0.00;;
15490;SDS011;7847;50.930;4.336;2022-08-21T14:20:06;0.43;;;0.00;;
15490;SDS011;7847;50.930;4.336;2022-08-21T14:22:45;0.00;;;0.00;;
15490;SDS011;7847;50.930;4.336;2022-08-21T14:32:46;0.00;;;0.00;;
15490;SDS011;7847;50.930;4.336;2022-08-21T14:35:13;0.00;;;0.00;;
15490;SDS011;7847;50.930;4.336;2022-08-21T14:37:42;0.00;;;0.00;;
15490;SDS011;7847;50.930;4.336;2022-08-21T14:40:08;0.00;;;0.00;;
15490;SDS011;7847;50.930;4.336;2022-08-21T14:42:35;0.00;;;0.00;;
15490;SDS011;7847;50.930;4.336;2022-08-21T14:45:07;0.00;;;0.00;;
15490;SDS011;7847;50.930;4.336;2022-08-21T14:47:36;0.00;;;0.00;;
15490;SDS011;7847;50.930;4.336;2022-08-21T14:50:02;0.00;;;0.00;;
15490;SDS011;7847;50.930;4.336;2022-08-21T14:52:28;0.00;;;0.00;;
15490;SDS011;7847;50.930;4.336;2022-08-21T14:54:54;0.00;;;0.00;;
15490;SDS011;7847;50.930;4.336;2022-08-21T14:57:21;0.00;;;0.00;;
15490;SDS011;7847;50.930;4.336;2022-08-21T14:59:47;0.00;;;0.00;;
15490;SDS011;7847;50.930;4.336;2022-08-21T15:02:14;0.00;;;0.00;;
15490;SDS011;7847;50.930;4.336;2022-08-21T15:04:40;0.00;;;0.00;;
15490;SDS011;7847;50.930;4.336;2022-08-21T15:07:07;0.00;;;0.00;;
15490;SDS011;7847;50.930;4.336;2022-08-21T15:09:33;0.00;;;0.00;;
15490;SDS011;7847;50.930;4.336;2022-08-21T15:12:00;0.00;;;0.00;;
15490;SDS011;7847;50.930;4.336;2022-08-21T15:14:27;0.00;;;0.00;;
15490;SDS011;7847;50.930;4.336;2022-08-21T15:16:54;0.00;;;0.00;;
15490;SDS011;7847;50.930;4.336;2022-08-21T15:19:21;0.03;;;0.03;;
15490;SDS011;7847;50.930;4.336;2022-08-21T15:21:47;0.00;;;0.00;;
15490;SDS011;7847;50.930;4.336;2022-08-21T15:24:13;0.00;;;0.00;;
15490;SDS011;7847;50.930;4.336;2022-08-21T15:26:39;0.00;;;0.00;;
15490;SDS011;7847;50.930;4.336;2022-08-21T15:29:05;0.00;;;0.00;;
15490;SDS011;7847;50.930;4.336;2022-08-21T15:31:32;0.05;;;0.05;;
15490;SDS011;7847;50.930;4.336;2022-08-21T15:33:58;0.00;;;0.00;;
15490;SDS011;7847;50.930;4.336;2022-08-21T15:36:25;0.00;;;0.00;;
15490;SDS011;7847;50.930;4.336;2022-08-21T15:38:51;0.00;;;0.00;;
15490;SDS011;7847;50.930;4.336;2022-08-21T15:41:17;0.00;;;0.00;;
15490;SDS011;7847;50.930;4.336;2022-08-21T15:43:50;0.00;;;0.00;;
15490;SDS011;7847;50.930;4.336;2022-08-21T15:46:17;0.00;;;0.00;;
15490;SDS011;7847;50.930;4.336;2022-08-21T15:48:43;0.00;;;0.00;;
15490;SDS011;7847;50.930;4.336;2022-08-21T15:51:11;0.00;;;0.00;;
15490;SDS011;7847;50.930;4.336;2022-08-21T15:53:37;0.00;;;0.00;;
15490;SDS011;7847;50.930;4.336;2022-08-21T15:56:05;0.10;;;0.10;;
15490;SDS011;7847;50.930;4.336;2022-08-21T15:58:32;0.00;;;0.00;;
15490;SDS011;7847;50.930;4.336;2022-08-21T16:00:58;0.00;;;0.00;;
15490;SDS011;7847;50.930;4.336;2022-08-21T16:03:25;0.00;;;0.00;;
15490;SDS011;7847;50.930;4.336;2022-08-21T16:05:51;0.00;;;0.00;;
15490;SDS011;7847;50.930;4.336;2022-08-21T16:08:20;0.00;;;0.00;;
15490;SDS011;7847;50.930;4.336;2022-08-21T16:10:46;0.00;;;0.00;;
15490;SDS011;7847;50.930;4.336;2022-08-21T16:13:40;0.00;;;0.00;;
15490;SDS011;7847;50.930;4.336;2022-08-21T16:16:01;0.00;;;0.00;;
15490;SDS011;7847;50.930;4.336;2022-08-21T16:18:28;0.00;;;0.00;;
15490;SDS011;7847;50.930;4.336;2022-08-21T16:20:54;0.00;;;0.00;;
15490;SDS011;7847;50.930;4.336;2022-08-21T16:23:20;0.00;;;0.00;;
15490;SDS011;7847;50.930;4.336;2022-08-21T16:25:46;0.00;;;0.00;;
15490;SDS011;7847;50.930;4.336;2022-08-21T16:28:13;0.05;;;0.05;;
15490;SDS011;7847;50.930;4.336;2022-08-21T16:30:41;0.00;;;0.00;;